Time;durP1;ratioP1;P1;durP2;ratioP2;P2;SDS_P1;SDS_P2;PMS_P1;PMS_P2;Temp;Humidity;BMP_temperature;BMP_pressure;BME280_temperature;BME280_humidity;BME280_pressure;Samples;Min_cycle;Max_cycle;Signal;HPM_P1;HPM_P2
2022/03/23 00:01:05;;;;;;;11.43;5.20;;;;;;;3.85;37.94;101131.53;5072429;28;20032;-55
2022/03/23 00:03:30;;;;;;;14.65;4.97;;;;;;;3.75;38.53;101116.84;5072329;28;20029;-55
2022/03/23 00:05:56;;;;;;;15.77;5.47;;;;;;;3.79;38.26;101130.88;5073608;28;20035;-52
2022/03/23 00:08:22;;;;;;;18.30;5.50;;;;;;;3.71;38.22;101112.56;5072187;28;20111;-56
2022/03/23 00:10:48;;;;;;;15.52;5.22;;;;;;;3.65;38.57;101107.47;5072258;28;20462;-56
2022/03/23 00:13:13;;;;;;;10.65;4.95;;;;;;;3.69;38.80;101115.25;5072810;28;20039;-55
2022/03/23 00:15:39;;;;;;;13.63;4.85;;;;;;;3.64;38.62;101111.88;5072156;28;20029;-58
2022/03/23 00:18:05;;;;;;;17.92;5.43;;;;;;;3.56;38.83;101098.88;5072056;28;20047;-53
2022/03/23 00:20:31;;;;;;;15.55;5.40;;;;;;;3.59;39.00;101104.06;5054728;28;20028;-55
2022/03/23 00:22:57;;;;;;;12.43;4.88;;;;;;;3.35;39.01;101073.06;5072207;28;20390;-54
2022/03/23 00:25:23;;;;;;;13.18;5.18;;;;;;;3.58;38.81;101110.28;5071807;28;20045;-57
2022/03/23 00:27:49;;;;;;;16.75;5.35;;;;;;;3.57;38.71;101110.34;5072121;28;20048;-56
2022/03/23 00:30:15;;;;;;;14.63;5.15;;;;;;;3.50;39.36;101099.06;5072110;28;20111;-56
2022/03/23 00:32:40;;;;;;;14.00;5.28;;;;;;;3.51;38.81;101105.25;5071807;28;20064;-58
2022/03/23 00:35:06;;;;;;;19.10;5.00;;;;;;;3.49;39.37;101112.34;5071862;28;20079;-57
2022/03/23 00:37:31;;;;;;;12.00;4.85;;;;;;;3.47;39.44;101099.16;5072238;28;20047;-57
2022/03/23 00:39:57;;;;;;;11.30;4.90;;;;;;;3.40;39.44;101087.03;5054632;28;20056;-57
2022/03/23 00:42:22;;;;;;;13.63;4.72;;;;;;;3.41;39.43;101102.00;5071358;28;20029;-52
2022/03/23 00:44:48;;;;;;;12.57;5.20;;;;;;;3.38;39.17;101097.66;5071319;28;20032;-52
2022/03/23 00:47:14;;;;;;;12.23;4.90;;;;;;;3.37;39.62;101092.41;5071365;28;20060;-56
2022/03/23 00:49:40;;;;;;;16.20;5.00;;;;;;;3.34;39.50;101100.44;5053867;28;20052;-56
2022/03/23 00:52:08;;;;;;;13.60;5.28;;;;;;;3.28;39.84;101098.88;5071636;28;20177;-53
2022/03/23 00:54:37;;;;;;;13.60;5.35;;;;;;;3.01;39.62;101054.63;5053332;28;20032;-55
2022/03/23 00:57:04;;;;;;;11.32;5.43;;;;;;;3.22;39.86;101091.09;5071735;28;20024;-55
2022/03/23 00:59:30;;;;;;;12.52;5.15;;;;;;;3.23;39.98;101099.00;5071920;28;20024;-53
2022/03/23 01:01:56;;;;;;;11.93;5.10;;;;;;;3.16;39.95;101085.06;5071602;28;20032;-54
2022/03/23 01:04:22;;;;;;;17.05;5.55;;;;;;;3.20;40.49;101092.91;5070810;28;20032;-57
2022/03/23 01:06:48;;;;;;;13.50;5.55;;;;;;;3.18;40.45;101095.63;5071463;28;20112;-54
2022/03/23 01:09:13;;;;;;;12.82;5.82;;;;;;;3.18;40.36;101094.75;5071543;28;20077;-56
2022/03/23 01:11:40;;;;;;;13.05;5.45;;;;;;;3.13;39.93;101095.75;5053516;28;20390;-55
2022/03/23 01:14:06;;;;;;;12.13;5.43;;;;;;;3.14;40.20;101096.63;5070864;28;20046;-57
2022/03/23 01:16:32;;;;;;;12.13;5.97;;;;;;;3.03;40.57;101083.72;5071238;28;20429;-54
2022/03/23 01:18:59;;;;;;;13.95;5.28;;;;;;;3.08;40.41;101096.78;5072254;28;20474;-53
2022/03/23 01:21:24;;;;;;;15.30;5.32;;;;;;;3.07;40.23;101101.22;5071209;28;20024;-56
2022/03/23 01:23:50;;;;;;;10.43;5.53;;;;;;;3.06;40.68;101085.38;5070512;28;20055;-55
2022/03/23 01:26:16;;;;;;;13.15;5.20;;;;;;;3.05;40.82;101086.28;5070888;28;20059;-55
2022/03/23 01:28:41;;;;;;;13.77;5.32;;;;;;;3.03;40.63;101093.41;5053651;28;20037;-53
2022/03/23 01:31:08;;;;;;;11.25;5.05;;;;;;;3.01;40.55;101086.38;5070742;28;20099;-55
2022/03/23 01:33:33;;;;;;;10.52;4.82;;;;;;;2.99;40.70;101085.56;5071081;28;20048;-55
2022/03/23 01:35:59;;;;;;;12.38;5.50;;;;;;;2.97;40.86;101071.50;5071072;28;20037;-51
2022/03/23 01:38:25;;;;;;;11.50;5.18;;;;;;;2.89;40.84;101065.56;5070543;28;20054;-54
2022/03/23 01:40:50;;;;;;;8.55;5.10;;;;;;;2.93;40.99;101080.47;5070752;28;20039;-53
2022/03/23 01:43:16;;;;;;;9.82;4.72;;;;;;;2.87;41.02;101068.25;5052921;28;20045;-58
2022/03/23 01:45:41;;;;;;;11.43;4.82;;;;;;;2.91;41.20;101079.63;5070614;28;20059;-55
2022/03/23 01:48:07;;;;;;;10.32;5.38;;;;;;;2.83;41.08;101063.97;5070924;28;20394;-56
2022/03/23 01:50:32;;;;;;;9.93;5.68;;;;;;;2.79;41.67;101064.09;5070748;28;20115;-56
2022/03/23 01:52:58;;;;;;;8.30;5.32;;;;;;;2.84;41.57;101080.69;5070689;28;20032;-52
2022/03/23 01:55:24;;;;;;;13.63;6.03;;;;;;;2.82;41.81;101070.19;5070859;28;20040;-52
2022/03/23 01:57:54;;;;;;;12.15;6.32;;;;;;;2.80;42.05;101073.75;5070103;28;20056;-53
2022/03/23 02:00:21;;;;;;;13.27;7.00;;;;;;;2.69;41.87;101053.78;5070036;28;20493;-55
2022/03/23 02:02:46;;;;;;;15.30;6.22;;;;;;;2.73;41.93;101066.00;5070550;28;20039;-50
2022/03/23 02:05:13;;;;;;;12.27;5.78;;;;;;;2.73;41.81;101076.59;5070441;28;20028;-54
2022/03/23 02:07:41;;;;;;;13.70;6.47;;;;;;;2.73;42.19;101068.66;5071043;28;20150;-54
2022/03/23 02:10:08;;;;;;;15.88;6.18;;;;;;;2.72;42.04;101064.28;5052608;28;20082;-52
2022/03/23 02:12:34;;;;;;;13.45;5.85;;;;;;;2.69;42.62;101064.38;5070293;28;20028;-48
2022/03/23 02:15:10;;;;;;;13.73;6.43;;;;;;;2.75;42.05;101073.88;5052535;28;20123;-57
2022/03/23 02:17:36;;;;;;;13.98;6.30;;;;;;;2.68;42.61;101072.34;5070950;28;20066;-54
2022/03/23 02:20:02;;;;;;;13.48;6.03;;;;;;;2.64;42.26;101071.53;5070210;28;20100;-57
2022/03/23 02:22:29;;;;;;;15.15;6.00;;;;;;;2.61;42.74;101070.78;5070340;28;20081;-52
2022/03/23 02:24:56;;;;;;;11.93;5.55;;;;;;;2.59;42.58;101073.44;5070582;28;20807;-53
2022/03/23 02:27:22;;;;;;;21.70;5.88;;;;;;;2.55;42.77;101061.22;5070322;28;20033;-57
2022/03/23 02:29:48;;;;;;;16.08;6.05;;;;;;;2.54;42.73;101065.66;5052305;28;20115;-55
2022/03/23 02:32:14;;;;;;;11.18;5.90;;;;;;;2.37;42.74;101038.81;5070421;28;20036;-57
2022/03/23 02:34:40;;;;;;;15.70;5.82;;;;;;;2.32;43.27;101025.72;5052586;28;20051;-54
2022/03/23 02:37:06;;;;;;;13.95;5.53;;;;;;;2.46;43.02;101057.06;5070837;28;20040;-58
2022/03/23 02:39:31;;;;;;;14.32;5.47;;;;;;;2.49;42.77;101056.97;5070154;28;20039;-55
2022/03/23 02:41:57;;;;;;;13.20;5.32;;;;;;;2.42;43.18;101055.41;5070406;28;20481;-53
2022/03/23 02:44:25;;;;;;;14.13;5.28;;;;;;;2.46;42.90;101051.75;5070612;28;20398;-53
2022/03/23 02:46:51;;;;;;;14.60;5.45;;;;;;;2.44;43.77;101053.59;5070532;28;20033;-53
2022/03/23 02:49:18;;;;;;;11.82;5.45;;;;;;;2.39;42.96;101050.22;5070287;28;20031;-53
2022/03/23 02:51:44;;;;;;;12.02;5.60;;;;;;;2.36;43.11;101047.66;5070231;28;20033;-54
2022/03/23 03:02:59;;;;;;;18.13;6.20;;;;;;;2.31;43.43;101047.75;5052361;28;20040;-55
2022/03/23 03:05:25;;;;;;;13.70;5.57;;;;;;;2.22;43.71;101042.72;5070345;28;20379;-55
2022/03/23 03:10:34;;;;;;;16.00;5.53;;;;;;;2.19;43.82;101026.97;5070191;28;20542;-57
2022/03/23 03:13:00;;;;;;;11.45;5.60;;;;;;;2.21;43.58;101041.84;5073636;28;20118;-55
2022/03/23 03:15:25;;;;;;;13.60;5.85;;;;;;;2.21;43.36;101046.28;5074272;28;20024;-53
2022/03/23 03:17:51;;;;;;;15.90;5.93;;;;;;;2.14;43.58;101040.28;5073392;28;20071;-52
2022/03/23 03:20:17;;;;;;;14.05;6.22;;;;;;;2.16;43.90;101038.47;5072894;28;20054;-53
2022/03/23 03:22:45;;;;;;;16.02;5.47;;;;;;;2.14;43.69;101038.50;5073451;28;20462;-55
2022/03/23 03:25:15;;;;;;;13.35;5.85;;;;;;;2.10;43.96;101026.28;5055697;28;20100;-55
2022/03/23 03:27:41;;;;;;;10.75;6.30;;;;;;;2.15;44.00;101034.94;5073021;28;20052;-55
2022/03/23 03:30:09;;;;;;;9.95;5.38;;;;;;;1.90;44.59;100983.66;5072989;28;20123;-56
2022/03/23 03:32:35;;;;;;;13.77;5.85;;;;;;;2.22;43.87;101043.59;5073037;28;20024;-54
2022/03/23 03:35:01;;;;;;;15.32;5.82;;;;;;;2.30;44.10;101043.38;5072778;28;20363;-56
2022/03/23 03:37:28;;;;;;;18.00;6.15;;;;;;;2.10;44.00;100991.94;5072775;28;20037;-54
2022/03/23 03:39:54;;;;;;;13.50;5.47;;;;;;;2.43;43.96;101050.09;5072734;28;20033;-57
2022/03/23 03:42:19;;;;;;;13.75;5.88;;;;;;;2.53;43.78;101034.84;5073397;28;20086;-55
2022/03/23 03:44:45;;;;;;;16.92;6.10;;;;;;;2.64;43.12;101039.81;5072445;28;20079;-56
2022/03/23 03:47:11;;;;;;;16.92;6.05;;;;;;;2.72;42.85;101040.47;5072961;28;20552;-55
2022/03/23 03:49:38;;;;;;;12.75;5.88;;;;;;;2.56;42.87;100999.50;5073503;28;20036;-56
2022/03/23 03:52:04;;;;;;;18.25;5.93;;;;;;;2.89;42.77;101036.47;5072892;28;20060;-59
2022/03/23 03:54:30;;;;;;;14.38;6.03;;;;;;;2.99;42.47;101035.28;5072689;28;20523;-57
2022/03/23 03:56:56;;;;;;;11.18;5.60;;;;;;;3.10;42.58;101028.81;5073327;28;20043;-53
2022/03/23 03:59:21;;;;;;;16.42;6.32;;;;;;;3.15;41.93;101017.19;5072708;28;20025;-55
2022/03/23 04:01:46;;;;;;;12.90;6.03;;;;;;;3.33;41.73;101025.47;5054715;28;20021;-55
2022/03/23 04:04:12;;;;;;;16.30;6.13;;;;;;;3.43;41.54;101023.41;5073135;28;20102;-56
2022/03/23 04:06:37;;;;;;;12.82;6.30;;;;;;;3.56;41.84;101018.59;5072730;28;20036;-57
2022/03/23 04:09:03;;;;;;;13.02;6.03;;;;;;;3.86;40.85;101010.53;5072231;28;20393;-54
2022/03/23 04:11:30;;;;;;;20.40;6.65;;;;;;;5.03;38.93;101017.88;5072843;28;20173;-59
2022/03/23 04:13:55;;;;;;;19.50;7.05;;;;;;;6.47;35.21;101011.16;5072314;28;20077;-55
2022/03/23 04:16:21;;;;;;;17.27;6.85;;;;;;;7.72;33.47;101011.59;5072341;28;20119;-53
2022/03/23 04:18:47;;;;;;;18.48;7.93;;;;;;;8.63;31.60;101002.56;5072515;28;20039;-58
2022/03/23 04:21:12;;;;;;;17.90;7.38;;;;;;;9.52;29.80;100994.06;5054553;28;20032;-56
2022/03/23 04:23:39;;;;;;;18.02;7.00;;;;;;;10.06;29.00;100963.28;5071739;28;20381;-62
2022/03/23 04:26:04;;;;;;;17.15;7.65;;;;;;;11.11;27.10;101003.34;5053658;28;20025;-61
2022/03/23 04:28:31;;;;;;;16.65;6.78;;;;;;;11.99;26.25;100994.88;5072264;28;20029;-61
2022/03/23 04:30:57;;;;;;;19.80;7.55;;;;;;;13.02;24.35;100988.66;5072596;28;20085;-59
2022/03/23 04:33:22;;;;;;;13.70;7.28;;;;;;;14.00;23.37;100994.09;5071462;28;20449;-58
2022/03/23 04:35:48;;;;;;;12.70;6.57;;;;;;;14.83;22.14;100992.16;5037039;28;20080;-58
2022/03/23 04:38:13;;;;;;;18.75;7.80;;;;;;;15.59;21.37;100983.28;5072226;28;20036;-54
2022/03/23 04:40:39;;;;;;;19.95;8.10;;;;;;;16.38;20.17;100989.31;5072320;28;20028;-56
2022/03/23 04:43:04;;;;;;;17.85;7.47;;;;;;;17.21;19.23;100986.53;5071640;28;20033;-57
2022/03/23 04:45:30;;;;;;;16.65;7.07;;;;;;;17.96;18.15;100962.66;5071231;28;20505;-54
2022/03/23 04:47:55;;;;;;;13.73;6.90;;;;;;;18.75;17.56;100993.16;5071943;28;20386;-58
2022/03/23 04:50:21;;;;;;;15.68;7.10;;;;;;;19.48;16.49;100983.34;5054054;28;20496;-61
2022/03/23 04:52:48;;;;;;;14.10;7.38;;;;;;;20.30;15.82;100982.41;5071718;28;20047;-56
2022/03/23 04:55:15;;;;;;;18.10;7.53;;;;;;;20.97;15.63;100998.06;5071440;28;20034;-56
2022/03/23 04:57:41;;;;;;;20.45;7.97;;;;;;;21.17;14.51;100951.53;5071785;28;20127;-57
2022/03/23 05:00:10;;;;;;;15.55;7.28;;;;;;;22.04;14.50;100989.28;5071663;28;20468;-59
2022/03/23 05:02:38;;;;;;;23.20;7.22;;;;;;;22.71;13.71;100981.03;5071293;28;20028;-57
2022/03/23 05:05:08;;;;;;;19.70;7.90;;;;;;;23.57;12.82;100978.38;5070870;28;20035;-56
2022/03/23 05:07:34;;;;;;;12.15;7.45;;;;;;;24.37;12.17;100969.88;5053574;28;20043;-58
2022/03/23 05:09:59;;;;;;;15.60;7.82;;;;;;;24.97;11.55;100944.41;5071008;28;20028;-54
2022/03/23 05:12:25;;;;;;;17.30;8.03;;;;;;;25.82;11.02;100974.00;5052914;28;20043;-57
2022/03/23 05:14:51;;;;;;;20.30;8.00;;;;;;;26.41;10.44;100966.47;5070620;28;20027;-57
2022/03/23 05:17:16;;;;;;;18.98;7.40;;;;;;;27.20;9.86;100969.81;5070884;28;20044;-57
2022/03/23 05:19:42;;;;;;;17.52;7.90;;;;;;;27.89;9.17;100972.53;5071719;28;20523;-58
2022/03/23 05:22:08;;;;;;;14.98;8.00;;;;;;;28.40;8.81;100962.75;5070645;28;20029;-58
2022/03/23 05:24:34;;;;;;;12.98;7.53;;;;;;;28.90;8.73;100970.50;5070598;28;20029;-55
2022/03/23 05:27:00;;;;;;;18.00;8.10;;;;;;;29.43;8.23;100968.56;5070992;28;20412;-54
2022/03/23 05:29:25;;;;;;;19.13;7.40;;;;;;;29.76;7.78;100963.88;5070788;28;20107;-55
2022/03/23 05:31:51;;;;;;;25.17;7.55;;;;;;;30.17;7.91;100958.88;5052623;28;20036;-58
2022/03/23 05:34:16;;;;;;;19.30;8.20;;;;;;;30.59;7.50;100939.72;5070460;28;20048;-56
2022/03/23 05:36:42;;;;;;;12.95;7.32;;;;;;;31.25;7.22;100943.84;5053368;28;20036;-57
2022/03/23 05:39:07;;;;;;;18.73;7.63;;;;;;;31.83;6.60;100958.97;5071059;28;20127;-57
2022/03/23 05:41:33;;;;;;;19.00;7.65;;;;;;;32.48;6.50;100954.38;5070401;28;20062;-58
2022/03/23 05:43:58;;;;;;;13.77;7.90;;;;;;;32.88;6.50;100932.50;5071003;28;20028;-61
2022/03/23 05:46:25;;;;;;;14.43;7.82;;;;;;;33.39;6.06;100962.31;5070256;28;20458;-58
2022/03/23 05:48:52;;;;;;;16.80;7.55;;;;;;;33.87;5.40;100954.56;5070478;28;20040;-56
2022/03/23 05:51:18;;;;;;;13.25;7.80;;;;;;;34.25;5.45;100961.28;5070849;28;20028;-57
2022/03/23 05:53:43;;;;;;;17.58;7.30;;;;;;;34.54;5.06;100952.00;5052765;28;20480;-57
2022/03/23 05:56:09;;;;;;;15.65;7.78;;;;;;;34.92;5.19;100953.00;5070270;28;20074;-59
2022/03/23 05:58:35;;;;;;;17.75;7.63;;;;;;;35.34;4.98;100963.50;5070704;28;20039;-57
2022/03/23 06:01:02;;;;;;;21.58;8.00;;;;;;;35.71;4.78;100969.47;5052626;28;20068;-59
2022/03/23 06:03:28;;;;;;;21.10;7.70;;;;;;;36.24;4.69;100957.59;5070094;28;20039;-61
2022/03/23 06:05:53;;;;;;;19.30;7.22;;;;;;;36.54;4.45;100962.56;5070357;28;20028;-60
2022/03/23 06:08:20;;;;;;;22.80;8.25;;;;;;;36.94;3.90;100949.03;5070834;28;20046;-57
2022/03/23 06:10:45;;;;;;;23.67;8.07;;;;;;;37.23;4.01;100945.78;5070590;28;20036;-59
2022/03/23 06:13:11;;;;;;;20.75;8.48;;;;;;;37.57;3.47;100950.84;5070766;28;20035;-62
2022/03/23 06:15:37;;;;;;;19.55;7.95;;;;;;;37.68;4.17;100928.50;5070836;28;20037;-64
2022/03/23 06:18:02;;;;;;;23.75;8.95;;;;;;;38.08;3.28;100946.34;5070480;28;20031;-63
2022/03/23 06:20:28;;;;;;;22.50;8.63;;;;;;;38.64;3.45;100947.34;5052051;28;20447;-61
2022/03/23 06:22:53;;;;;;;23.08;9.02;;;;;;;38.70;3.56;100921.00;5051859;28;20028;-63
2022/03/23 06:25:19;;;;;;;28.52;8.23;;;;;;;38.94;3.24;100930.69;5052753;28;20053;-61
2022/03/23 06:27:44;;;;;;;22.25;8.70;;;;;;;38.91;2.93;100920.94;5052715;28;20064;-64
2022/03/23 06:30:10;;;;;;;21.75;8.95;;;;;;;39.26;3.11;100938.59;5052134;28;20055;-70
2022/03/23 06:32:36;;;;;;;24.38;8.02;;;;;;;39.50;2.67;100937.88;5070268;28;20028;-74
2022/03/23 06:35:03;;;;;;;29.38;8.57;;;;;;;39.60;2.59;100937.81;5070642;28;20071;-71
2022/03/23 06:37:30;;;;;;;27.55;8.77;;;;;;;39.73;2.87;100935.44;5070271;28;20036;-69
2022/03/23 06:39:57;;;;;;;15.38;7.95;;;;;;;39.99;2.70;100933.28;5070105;28;20455;-69
2022/03/23 06:42:23;;;;;;;24.98;8.75;;;;;;;40.34;2.66;100938.81;5052165;28;20029;-66
2022/03/23 06:44:49;;;;;;;27.08;8.30;;;;;;;40.44;2.31;100921.03;5070653;28;20122;-65
2022/03/23 06:47:15;;;;;;;23.33;9.23;;;;;;;40.54;2.26;100925.66;5073458;28;20079;-66
2022/03/23 06:49:40;;;;;;;22.10;8.48;;;;;;;40.86;2.17;100922.16;5071919;28;20063;-64
2022/03/23 06:52:06;;;;;;;27.08;8.50;;;;;;;41.20;2.33;100925.88;5055787;28;20643;-66
2022/03/23 06:54:32;;;;;;;30.50;8.52;;;;;;;41.41;2.12;100926.41;5073817;28;20029;-66
2022/03/23 06:56:57;;;;;;;29.65;8.40;;;;;;;41.63;2.22;100915.66;5039578;28;20028;-66
2022/03/23 06:59:23;;;;;;;28.70;9.20;;;;;;;41.98;1.88;100925.41;5073500;28;20055;-65
2022/03/23 07:01:49;;;;;;;30.08;8.75;;;;;;;42.26;2.04;100913.38;5072985;28;20386;-61
2022/03/23 07:04:14;;;;;;;26.33;8.73;;;;;;;42.21;1.98;100913.47;5068561;28;20034;-68
2022/03/23 07:06:41;;;;;;;31.92;8.60;;;;;;;42.09;1.89;100912.00;5073185;28;20043;-65
2022/03/23 07:11:51;;;;;;;30.85;8.93;;;;;;;42.62;1.92;100901.34;5072906;28;20485;-65
2022/03/23 07:14:16;;;;;;;33.22;9.45;;;;;;;42.49;1.66;100890.97;5055060;28;20044;-66
2022/03/23 07:16:43;;;;;;;19.85;8.77;;;;;;;42.54;1.65;100893.66;5054719;28;20024;-67
2022/03/23 07:19:09;;;;;;;19.98;7.35;;;;;;;42.37;1.83;100886.66;5054397;28;20024;-73
2022/03/23 07:21:34;;;;;;;24.02;7.00;;;;;;;42.48;1.98;100901.38;5072486;28;20090;-66
2022/03/23 07:24:00;;;;;;;22.25;7.15;;;;;;;42.66;1.48;100899.56;5055527;28;20028;-65
2022/03/23 07:26:26;;;;;;;15.27;7.90;;;;;;;42.89;1.80;100894.84;5072763;28;20021;-64
2022/03/23 07:28:51;;;;;;;20.70;7.13;;;;;;;43.00;1.63;100894.59;5054432;28;20422;-66
2022/03/23 07:31:17;;;;;;;19.63;6.15;;;;;;;42.93;1.49;100889.44;5070060;28;20024;-66
2022/03/23 07:33:43;;;;;;;25.65;7.10;;;;;;;43.00;1.70;100889.81;5073313;28;20431;-63
2022/03/23 07:36:12;;;;;;;27.02;7.00;;;;;;;42.91;1.66;100891.72;5072273;28;20040;-62
2022/03/23 07:38:38;;;;;;;21.75;7.13;;;;;;;42.65;1.76;100889.47;5072534;28;20055;-62
2022/03/23 07:41:04;;;;;;;22.30;7.05;;;;;;;42.15;1.75;100876.19;5055166;28;20412;-61
2022/03/23 07:43:29;;;;;;;20.73;6.07;;;;;;;41.75;2.16;100879.47;5073061;28;20031;-62
2022/03/23 07:45:55;;;;;;;24.27;6.88;;;;;;;41.17;2.08;100875.94;5073075;28;20024;-60
2022/03/23 07:48:22;;;;;;;20.00;7.50;;;;;;;40.65;2.33;100875.84;5072837;28;20032;-61
2022/03/23 07:50:48;;;;;;;24.17;7.10;;;;;;;40.23;2.63;100886.72;5071976;28;20474;-62
2022/03/23 07:53:14;;;;;;;19.42;6.50;;;;;;;39.66;3.01;100884.53;5072607;28;20036;-60
2022/03/23 07:55:40;;;;;;;19.17;6.85;;;;;;;38.90;2.61;100846.44;5072780;28;20032;-59
2022/03/23 07:58:06;;;;;;;16.58;6.78;;;;;;;38.46;3.11;100881.66;5070842;28;20537;-59
2022/03/23 08:00:32;;;;;;;13.80;5.88;;;;;;;37.81;3.33;100869.25;5072220;28;20035;-60
2022/03/23 08:02:57;;;;;;;10.60;6.00;;;;;;;36.45;3.97;100864.59;5072329;28;20111;-59
2022/03/23 08:05:24;;;;;;;14.93;5.78;;;;;;;34.16;5.10;100858.06;5071387;28;20104;-59
2022/03/23 08:07:50;;;;;;;15.30;5.70;;;;;;;31.23;6.47;100866.63;5072306;28;20047;-63
2022/03/23 08:10:15;;;;;;;14.70;6.30;;;;;;;28.38;7.89;100851.97;5072614;28;20044;-63
2022/03/23 08:12:41;;;;;;;15.13;6.93;;;;;;;25.97;9.41;100859.53;5072791;28;20040;-59
2022/03/23 08:15:07;;;;;;;18.38;6.40;;;;;;;23.53;10.93;100826.72;5071254;28;20040;-63
2022/03/23 08:17:33;;;;;;;16.23;6.25;;;;;;;21.94;12.31;100861.34;5053808;28;20117;-63
2022/03/23 08:22:42;;;;;;;13.27;6.78;;;;;;;19.64;14.58;100853.13;5051839;28;20027;-62
2022/03/23 08:25:08;;;;;;;16.40;7.05;;;;;;;18.90;15.13;100852.44;5071644;28;20024;-54
2022/03/23 08:27:34;;;;;;;16.52;6.43;;;;;;;18.01;15.63;100814.03;5071554;28;20477;-51
2022/03/23 08:29:59;;;;;;;15.55;7.22;;;;;;;17.50;16.33;100817.03;5071976;28;20036;-58
2022/03/23 08:32:26;;;;;;;10.63;6.18;;;;;;;16.77;17.05;100808.31;5071911;28;20032;-52
2022/03/23 08:34:52;;;;;;;9.82;6.22;;;;;;;16.40;17.74;100846.81;5071889;28;20621;-56
2022/03/23 08:37:18;;;;;;;13.95;6.25;;;;;;;15.97;18.25;100853.28;5054577;28;20044;-61
2022/03/23 08:39:44;;;;;;;15.27;6.65;;;;;;;15.52;18.72;100844.44;5051827;28;20033;-56
2022/03/23 08:42:09;;;;;;;12.63;6.18;;;;;;;15.31;18.77;100837.19;5051582;28;20100;-57
2022/03/23 08:44:35;;;;;;;10.38;6.15;;;;;;;15.16;19.13;100825.88;5054651;28;20036;-57
2022/03/23 08:47:00;;;;;;;16.42;6.30;;;;;;;15.17;18.95;100835.66;5071369;28;20060;-61
2022/03/23 08:49:26;;;;;;;11.63;5.88;;;;;;;15.07;19.12;100826.63;5071540;28;20066;-55
2022/03/23 08:51:51;;;;;;;13.82;6.60;;;;;;;14.77;19.08;100787.75;5071068;28;20123;-57
2022/03/23 08:54:17;;;;;;;8.65;5.63;;;;;;;14.95;18.95;100828.53;5053457;28;20119;-59
2022/03/23 08:56:42;;;;;;;9.63;5.50;;;;;;;14.91;19.44;100821.66;5071348;28;20072;-59
2022/03/23 08:59:08;;;;;;;15.57;6.70;;;;;;;14.87;19.58;100817.50;5071312;28;20420;-59
2022/03/23 09:01:33;;;;;;;18.67;6.13;;;;;;;14.86;19.46;100815.78;5071563;28;20032;-59
2022/03/23 09:04:03;;;;;;;12.48;6.13;;;;;;;14.73;19.55;100794.38;5071003;28;20040;-63
2022/03/23 09:06:29;;;;;;;14.68;6.70;;;;;;;14.75;19.93;100800.50;5052320;28;20116;-64
2022/03/23 09:08:55;;;;;;;9.60;5.88;;;;;;;14.76;19.89;100813.00;5071121;28;20588;-54
2022/03/23 09:11:22;;;;;;;17.55;6.88;;;;;;;14.56;20.12;100806.53;5071250;28;20039;-52
2022/03/23 09:13:48;;;;;;;16.58;7.05;;;;;;;14.33;20.73;100811.97;5052929;28;20043;-57
2022/03/23 09:16:14;;;;;;;14.35;7.50;;;;;;;14.27;20.61;100807.91;5070149;28;20025;-58
2022/03/23 09:18:40;;;;;;;10.48;7.05;;;;;;;14.27;20.78;100796.31;5053293;28;20413;-54
2022/03/23 09:21:05;;;;;;;11.25;6.65;;;;;;;14.33;20.56;100802.03;5070141;28;20025;-56
2022/03/23 09:23:31;;;;;;;15.15;6.78;;;;;;;14.09;20.99;100798.63;5070397;28;20033;-52
2022/03/23 09:25:56;;;;;;;14.32;6.70;;;;;;;13.67;21.42;100794.69;5070192;28;20077;-59
2022/03/23 09:28:22;;;;;;;14.57;6.80;;;;;;;13.44;21.95;100796.47;5070551;28;20406;-57
2022/03/23 09:30:48;;;;;;;14.00;6.43;;;;;;;13.42;21.64;100791.19;5070721;28;20035;-54
2022/03/23 09:33:14;;;;;;;13.57;6.28;;;;;;;13.45;21.75;100790.13;5052517;28;20044;-57
2022/03/23 09:35:39;;;;;;;16.42;6.65;;;;;;;13.48;21.45;100774.59;5070692;28;20041;-57
2022/03/23 09:38:05;;;;;;;14.50;6.03;;;;;;;13.57;21.29;100774.84;5069807;28;20466;-57
2022/03/23 09:40:32;;;;;;;12.63;6.55;;;;;;;13.76;21.20;100779.66;5070636;28;20119;-56
2022/03/23 09:43:03;;;;;;;12.35;6.50;;;;;;;13.93;21.20;100776.47;5071333;28;20438;-54
2022/03/23 09:45:46;;;;;;;13.23;6.75;;;;;;;13.92;21.25;100777.44;5070597;28;20466;-53
2022/03/23 09:48:21;;;;;;;9.65;6.30;;;;;;;14.03;21.37;100778.44;5068452;28;20036;-57
2022/03/23 09:50:53;;;;;;;10.88;6.55;;;;;;;14.14;20.92;100764.13;5070423;28;20402;-56
2022/03/23 09:53:21;;;;;;;12.35;6.30;;;;;;;13.75;21.02;100724.97;5069734;28;20028;-56
2022/03/23 09:55:49;;;;;;;8.57;5.70;;;;;;;13.90;20.90;100765.94;5070289;28;20476;-55
2022/03/23 09:58:14;;;;;;;13.95;5.80;;;;;;;13.73;21.09;100752.97;5069844;28;20120;-57
2022/03/23 10:00:42;;;;;;;9.95;5.05;;;;;;;13.58;20.98;100731.69;5069458;28;20032;-55
2022/03/23 10:03:11;;;;;;;9.52;5.20;;;;;;;13.75;20.85;100749.19;5051654;28;20457;-56
2022/03/23 10:06:14;;;;;;;20.00;5.65;;;;;;;13.87;20.26;100749.22;5069252;28;20182;-52
2022/03/23 10:09:17;;;;;;;10.02;5.45;;;;;;;13.96;20.20;100739.50;5050406;28;20065;-57
2022/03/23 10:12:19;;;;;;;10.77;5.25;;;;;;;14.05;20.09;100730.72;5050031;28;20051;-55
2022/03/23 10:15:22;;;;;;;12.75;5.68;;;;;;;14.11;19.90;100719.44;5050682;28;20032;-63
2022/03/23 10:18:00;;;;;;;10.85;5.60;;;;;;;14.14;19.91;100731.81;5050772;28;20064;-61
2022/03/23 10:20:25;;;;;;;10.88;4.95;;;;;;;13.98;20.18;100713.31;5050707;28;20029;-63
2022/03/23 10:22:53;;;;;;;9.70;5.47;;;;;;;14.05;20.45;100725.31;5066758;28;20040;-62
2022/03/23 10:25:21;;;;;;;10.98;5.22;;;;;;;14.08;20.14;100708.91;5073384;28;20047;-65
2022/03/23 10:27:47;;;;;;;11.27;5.10;;;;;;;13.97;20.33;100709.78;5072987;28;20497;-62
2022/03/23 10:30:16;;;;;;;12.48;5.28;;;;;;;14.14;20.25;100716.47;5072691;28;20039;-65
2022/03/23 10:32:42;;;;;;;8.73;5.32;;;;;;;14.09;20.29;100713.31;5071955;28;20040;-64
2022/03/23 10:35:13;;;;;;;14.07;5.50;;;;;;;14.10;20.25;100704.25;5072850;28;20086;-61
2022/03/23 10:37:41;;;;;;;8.40;5.60;;;;;;;14.04;20.18;100702.91;5071716;28;20043;-62
2022/03/23 10:40:11;;;;;;;13.30;5.45;;;;;;;14.02;20.50;100696.81;5072252;28;20458;-63
2022/03/23 10:42:39;;;;;;;12.80;5.32;;;;;;;13.85;20.08;100687.41;5071984;28;20052;-61
2022/03/23 10:45:08;;;;;;;13.25;4.95;;;;;;;13.85;20.55;100684.72;5073458;28;20031;-65
2022/03/23 10:47:35;;;;;;;9.80;5.38;;;;;;;13.81;20.55;100683.25;5074347;28;20063;-63
2022/03/23 10:50:19;;;;;;;15.95;5.40;;;;;;;13.95;19.94;100673.19;5074504;28;20090;-64
2022/03/23 10:53:01;;;;;;;10.43;5.15;;;;;;;13.98;20.09;100675.63;5073600;28;20505;-61
2022/03/23 10:55:28;;;;;;;12.25;5.32;;;;;;;13.90;19.84;100670.88;5074387;28;20043;-64
2022/03/23 10:58:21;;;;;;;9.73;5.32;;;;;;;13.98;19.69;100667.56;5074332;28;20115;-62
2022/03/23 11:00:48;;;;;;;11.80;5.10;;;;;;;13.80;19.87;100670.78;5055708;28;20467;-59
2022/03/23 11:03:14;;;;;;;7.88;4.80;;;;;;;13.69;19.76;100660.88;5073612;28;20028;-59
2022/03/23 11:05:44;;;;;;;10.77;4.78;;;;;;;13.66;20.08;100658.44;5074297;28;20089;-62
2022/03/23 11:08:20;;;;;;;11.20;5.32;;;;;;;13.66;20.05;100658.44;5073143;28;20070;-63
2022/03/23 11:16:26;;;;;;;10.23;4.95;;;;;;;13.83;19.57;100642.75;5073642;28;20442;-56
2022/03/23 11:19:10;;;;;;;12.52;4.70;;;;;;;13.86;19.35;100643.34;5073780;28;20032;-63
2022/03/23 11:22:09;;;;;;;13.70;4.78;;;;;;;13.68;19.49;100629.56;5073092;28;20115;-59
2022/03/23 11:24:38;;;;;;;6.90;4.63;;;;;;;13.54;19.88;100637.88;5029752;28;20041;-58
2022/03/23 11:27:06;;;;;;;10.73;4.90;;;;;;;13.42;20.11;100642.38;5072945;28;20473;-60
2022/03/23 11:29:33;;;;;;;9.90;4.78;;;;;;;13.25;20.19;100633.81;5073383;28;20066;-62
2022/03/23 11:32:06;;;;;;;11.32;4.63;;;;;;;13.23;20.02;100629.56;5073566;28;20033;-59
2022/03/23 11:34:34;;;;;;;9.25;5.20;;;;;;;13.23;20.13;100630.38;5071567;28;20044;-61
2022/03/23 11:37:01;;;;;;;8.93;4.53;;;;;;;13.11;20.33;100605.31;5073593;28;20071;-62
2022/03/23 11:39:27;;;;;;;8.75;4.70;;;;;;;13.19;19.89;100610.09;5072200;28;20062;-59
2022/03/23 11:41:53;;;;;;;11.38;5.03;;;;;;;13.28;20.26;100620.16;5072570;28;20032;-59
2022/03/23 11:44:21;;;;;;;9.48;4.50;;;;;;;13.04;19.89;100580.78;5072567;28;20032;-62